Time;durP1;ratioP1;P1;durP2;ratioP2;P2;SDS_P1;SDS_P2;PMS_P1;PMS_P2;Temp;Humidity;BMP_temperature;BMP_pressure;BME280_temperature;BME280_humidity;BME280_pressure;Samples;Min_cycle;Max_cycle;Signal;HPM_P1;HPM_P2
2022/07/12 00:01:59;;;;;;;25.10;16.63;;;12.70;99.90;;;;;;5030176;28;20099;-72
2022/07/12 00:04:27;;;;;;;40.65;19.70;;;12.70;99.90;;;;;;5046553;28;20090;-72
2022/07/12 00:06:54;;;;;;;28.27;17.73;;;12.70;99.90;;;;;;5051896;28;20501;-71
2022/07/12 00:09:21;;;;;;;23.67;16.08;;;12.60;99.90;;;;;;5046666;28;20041;-71
2022/07/12 00:11:47;;;;;;;26.65;18.17;;;12.60;99.90;;;;;;5050599;28;20052;-72
2022/07/12 00:14:14;;;;;;;20.83;17.40;;;12.50;99.90;;;;;;5036605;28;20032;-72
2022/07/12 00:16:41;;;;;;;16.95;15.05;;;12.50;99.90;;;;;;5033625;28;20398;-73
2022/07/12 00:19:08;;;;;;;19.00;15.55;;;12.50;99.90;;;;;;5052006;28;20052;-73
2022/07/12 00:21:35;;;;;;;21.88;15.68;;;12.40;99.90;;;;;;5050223;28;20044;-71
2022/07/12 00:24:02;;;;;;;20.63;16.75;;;12.50;99.90;;;;;;5057495;28;20052;-73
2022/07/12 00:26:29;;;;;;;62.85;17.98;;;12.40;99.90;;;;;;5052326;28;20048;-74
2022/07/12 00:28:57;;;;;;;95.20;21.75;;;12.40;99.90;;;;;;5037806;28;20228;-73
2022/07/12 00:31:24;;;;;;;44.40;17.05;;;12.50;99.90;;;;;;5034220;28;20040;-74
2022/07/12 00:33:51;;;;;;;39.40;18.23;;;12.40;99.90;;;;;;5032902;28;20057;-72
2022/07/12 00:36:19;;;;;;;22.65;15.32;;;12.20;99.90;;;;;;5053791;28;20414;-73
2022/07/12 00:38:46;;;;;;;27.02;14.65;;;12.30;99.90;;;;;;5036308;28;20044;-72
2022/07/12 00:41:13;;;;;;;30.55;16.30;;;12.10;99.90;;;;;;5056732;28;20079;-73
2022/07/12 00:43:40;;;;;;;18.42;14.05;;;12.00;99.90;;;;;;5049270;28;20041;-73
2022/07/12 00:46:07;;;;;;;27.17;16.35;;;12.00;99.90;;;;;;5038205;28;20033;-72
2022/07/12 00:48:35;;;;;;;24.83;16.38;;;12.00;99.90;;;;;;5031941;28;20537;-72
2022/07/12 00:51:03;;;;;;;32.22;15.30;;;12.00;99.90;;;;;;5058674;28;20036;-72
2022/07/12 00:53:30;;;;;;;39.65;16.77;;;12.00;99.90;;;;;;5052679;28;20063;-72
2022/07/12 00:55:57;;;;;;;21.95;15.55;;;12.10;99.90;;;;;;5053972;28;20056;-72
2022/07/12 00:58:25;;;;;;;16.80;14.25;;;11.80;99.90;;;;;;5049702;28;20041;-72
2022/07/12 01:00:54;;;;;;;16.58;13.00;;;11.80;99.90;;;;;;5036233;28;20114;-73
2022/07/12 01:03:21;;;;;;;14.15;11.10;;;11.70;99.90;;;;;;5035092;28;20103;-73
2022/07/12 01:05:49;;;;;;;12.82;11.38;;;11.70;99.90;;;;;;5054043;28;20037;-71
2022/07/12 01:08:17;;;;;;;12.32;11.10;;;11.70;99.90;;;;;;5038210;28;20137;-73
2022/07/12 01:10:44;;;;;;;16.90;13.20;;;11.70;99.90;;;;;;5035402;28;20574;-72
2022/07/12 01:13:11;;;;;;;12.10;10.95;;;11.70;99.90;;;;;;5056195;28;20128;-72
2022/07/12 01:15:40;;;;;;;16.98;14.23;;;11.60;99.90;;;;;;5052112;28;20048;-72
2022/07/12 01:18:07;;;;;;;27.17;15.55;;;11.60;99.90;;;;;;5051327;28;20045;-73
2022/07/12 01:20:34;;;;;;;32.00;17.20;;;11.50;99.90;;;;;;5054128;28;20049;-71
2022/07/12 01:23:02;;;;;;;34.85;18.02;;;11.50;99.90;;;;;;5048782;28;20040;-73
2022/07/12 01:25:29;;;;;;;38.45;18.20;;;11.50;99.90;;;;;;5053624;28;20068;-73
2022/07/12 01:27:56;;;;;;;42.97;18.75;;;11.50;99.90;;;;;;5064103;28;20047;-72
2022/07/12 01:30:23;;;;;;;49.75;19.67;;;11.60;99.90;;;;;;5052406;28;20049;-73
2022/07/12 01:32:51;;;;;;;61.58;20.77;;;11.60;99.90;;;;;;5033608;28;20041;-73
2022/07/12 01:35:20;;;;;;;56.70;19.67;;;11.60;99.90;;;;;;5031917;28;20541;-71
2022/07/12 01:37:48;;;;;;;40.10;18.27;;;11.60;99.90;;;;;;5052122;28;20044;-71
2022/07/12 01:40:15;;;;;;;22.45;15.85;;;11.50;99.90;;;;;;5049902;28;20040;-71
2022/07/12 01:42:44;;;;;;;29.13;16.15;;;11.70;99.90;;;;;;5032596;28;20040;-74
2022/07/12 01:45:12;;;;;;;81.20;20.45;;;11.80;99.90;;;;;;5032420;28;20049;-72
2022/07/12 01:47:39;;;;;;;38.50;16.80;;;11.70;99.90;;;;;;5033809;28;20143;-72
2022/07/12 01:50:07;;;;;;;75.78;20.42;;;11.80;99.90;;;;;;5061108;28;20055;-72
2022/07/12 01:52:35;;;;;;;56.80;17.33;;;11.70;99.90;;;;;;5050196;28;20053;-71
2022/07/12 01:55:03;;;;;;;56.92;16.90;;;11.70;99.90;;;;;;5030836;28;20380;-72
2022/07/12 01:57:32;;;;;;;55.95;18.05;;;11.70;99.90;;;;;;5024591;28;20605;-72
2022/07/12 02:00:01;;;;;;;74.85;19.15;;;11.70;99.90;;;;;;5030714;28;20111;-72
2022/07/12 02:02:31;;;;;;;94.70;19.33;;;11.60;99.90;;;;;;5050135;28;20037;-72
2022/07/12 02:05:03;;;;;;;77.82;21.20;;;11.60;99.90;;;;;;5022448;28;20040;-73
2022/07/12 02:07:30;;;;;;;104.10;21.83;;;11.60;99.90;;;;;;5033555;28;20110;-71
2022/07/12 02:09:57;;;;;;;103.32;23.10;;;11.60;99.90;;;;;;5047439;28;20067;-72
2022/07/12 02:12:24;;;;;;;117.43;25.45;;;11.60;99.90;;;;;;5053142;28;20036;-72
2022/07/12 02:14:51;;;;;;;91.00;24.45;;;11.60;99.90;;;;;;5051754;28;20048;-72
2022/07/12 02:17:18;;;;;;;82.20;23.92;;;11.60;99.90;;;;;;5022434;28;20040;-72
2022/07/12 02:19:45;;;;;;;68.25;22.77;;;11.50;99.90;;;;;;5065864;28;20074;-72
2022/07/12 02:22:12;;;;;;;97.88;23.75;;;11.50;99.90;;;;;;5030066;28;20178;-72
2022/07/12 02:24:39;;;;;;;82.43;24.35;;;11.50;99.90;;;;;;5051934;28;20045;-71
2022/07/12 02:27:06;;;;;;;34.60;19.13;;;11.50;99.90;;;;;;5029393;28;20502;-71
2022/07/12 02:29:35;;;;;;;81.13;22.55;;;11.50;99.90;;;;;;5047612;28;20052;-72
2022/07/12 02:32:02;;;;;;;101.35;22.90;;;11.50;99.90;;;;;;5031987;28;20603;-72
2022/07/12 02:34:30;;;;;;;203.10;29.88;;;11.50;99.90;;;;;;5048436;28;20067;-72
2022/07/12 02:36:56;;;;;;;235.48;29.05;;;11.40;99.90;;;;;;5055599;28;20102;-72
2022/07/12 02:39:23;;;;;;;281.75;31.73;;;11.40;99.90;;;;;;5051392;28;20049;-72
2022/07/12 02:41:50;;;;;;;194.10;29.10;;;11.40;99.90;;;;;;5049681;28;20750;-71
2022/07/12 02:44:17;;;;;;;135.18;25.13;;;11.40;99.90;;;;;;5050130;28;20072;-72
2022/07/12 02:46:44;;;;;;;121.72;24.17;;;11.40;99.90;;;;;;5032970;28;20048;-71
2022/07/12 02:49:10;;;;;;;139.75;25.13;;;11.40;99.90;;;;;;5055809;28;20053;-72
2022/07/12 02:51:37;;;;;;;82.82;22.73;;;11.40;99.90;;;;;;5047466;28;20460;-71
2022/07/12 02:54:04;;;;;;;89.00;20.98;;;11.40;99.90;;;;;;5033869;28;20041;-71
2022/07/12 02:56:31;;;;;;;94.32;21.35;;;11.40;99.90;;;;;;5033966;28;20109;-72
2022/07/12 02:58:57;;;;;;;91.07;22.92;;;11.60;99.90;;;;;;5036220;28;20192;-71
2022/07/12 03:01:24;;;;;;;124.95;23.30;;;11.50;99.90;;;;;;5046936;28;20045;-72
2022/07/12 03:03:51;;;;;;;124.05;23.35;;;11.50;99.90;;;;;;5033311;28;20486;-71
2022/07/12 03:06:18;;;;;;;91.68;23.48;;;11.50;99.90;;;;;;5030811;28;20049;-71
2022/07/12 03:08:44;;;;;;;84.07;21.02;;;11.60;99.90;;;;;;5032387;28;20102;-72
2022/07/12 03:11:11;;;;;;;42.00;16.48;;;11.60;99.90;;;;;;5051671;28;20048;-71
2022/07/12 03:13:38;;;;;;;66.43;17.77;;;11.50;99.90;;;;;;5032429;28;20040;-72
2022/07/12 03:16:07;;;;;;;62.55;16.50;;;11.60;99.90;;;;;;5050740;28;20041;-72
2022/07/12 03:18:34;;;;;;;119.35;21.27;;;11.30;99.90;;;;;;5053792;28;20039;-72
2022/07/12 03:21:01;;;;;;;171.43;25.23;;;11.40;99.90;;;;;;5052788;28;20041;-72
2022/07/12 03:23:28;;;;;;;159.63;24.30;;;11.40;99.90;;;;;;5049197;28;20603;-71
2022/07/12 03:25:55;;;;;;;133.98;23.55;;;11.40;99.90;;;;;;5052418;28;20047;-71
2022/07/12 03:28:22;;;;;;;133.10;24.88;;;11.40;99.90;;;;;;5052781;28;20136;-74
2022/07/12 03:30:49;;;;;;;113.15;22.77;;;11.40;99.90;;;;;;5032017;28;20036;-71
2022/07/12 03:33:17;;;;;;;112.75;22.85;;;11.40;99.90;;;;;;5047060;28;20048;-71
2022/07/12 03:35:43;;;;;;;112.53;22.38;;;11.30;99.90;;;;;;5031650;28;20548;-72
2022/07/12 03:38:10;;;;;;;121.60;23.02;;;11.30;99.90;;;;;;5053007;28;20049;-74
2022/07/12 03:40:37;;;;;;;116.28;24.15;;;11.40;99.90;;;;;;6084105;23;20516;-73
2022/07/12 03:43:04;;;;;;;155.23;27.63;;;11.40;99.90;;;;;;6085164;23;20441;-73
2022/07/12 03:45:31;;;;;;;138.65;26.83;;;11.40;99.90;;;;;;6122984;23;20101;-74
2022/07/12 03:47:57;;;;;;;135.43;26.10;;;11.50;99.90;;;;;;6082080;23;20106;-73
2022/07/12 03:50:24;;;;;;;122.75;26.45;;;11.60;99.90;;;;;;6063728;23;20458;-74
2022/07/12 03:52:51;;;;;;;135.68;28.10;;;11.50;99.90;;;;;;6091198;23;20079;-72
2022/07/12 03:55:18;;;;;;;161.95;29.55;;;11.50;99.90;;;;;;6061411;23;20525;-73
2022/07/12 03:57:45;;;;;;;222.13;37.33;;;11.50;99.90;;;;;;6083103;23;20486;-74
2022/07/12 04:00:13;;;;;;;195.05;33.50;;;11.60;99.90;;;;;;6083308;23;20677;-74
2022/07/12 04:02:41;;;;;;;161.07;33.22;;;11.70;99.90;;;;;;6053076;23;20070;-74
2022/07/12 04:05:09;;;;;;;157.82;30.85;;;11.90;99.90;;;;;;6079952;23;20428;-73
2022/07/12 04:07:37;;;;;;;160.40;34.95;;;12.00;99.90;;;;;;6062365;23;20032;-74
2022/07/12 04:10:05;;;;;;;225.88;35.40;;;12.00;99.90;;;;;;6058849;23;20036;-73
2022/07/12 04:12:32;;;;;;;241.73;35.20;;;12.10;99.90;;;;;;6088504;23;20186;-74
2022/07/12 04:14:59;;;;;;;237.60;35.90;;;12.20;99.90;;;;;;6052847;23;20077;-74
2022/07/12 04:17:25;;;;;;;180.45;31.48;;;12.20;99.90;;;;;;6052503;23;20514;-73
2022/07/12 04:19:52;;;;;;;221.73;33.60;;;12.40;99.90;;;;;;6091576;23;20039;-74
2022/07/12 04:22:19;;;;;;;258.20;35.92;;;12.30;99.90;;;;;;6060419;23;20028;-74
2022/07/12 04:24:46;;;;;;;285.23;36.40;;;12.40;99.90;;;;;;6086779;23;20398;-74
2022/07/12 04:27:13;;;;;;;224.65;35.42;;;12.50;99.90;;;;;;6058923;23;20033;-74
2022/07/12 04:29:39;;;;;;;193.35;33.50;;;12.50;99.90;;;;;;6067076;23;20028;-74
2022/07/12 04:32:07;;;;;;;248.63;37.22;;;12.60;99.90;;;;;;6050350;23;20086;-74
2022/07/12 04:34:33;;;;;;;200.68;34.30;;;12.60;99.90;;;;;;6083687;23;20043;-74
2022/07/12 04:37:00;;;;;;;223.15;34.45;;;12.50;99.90;;;;;;6064705;23;20089;-74
2022/07/12 04:39:27;;;;;;;234.68;36.15;;;12.60;99.90;;;;;;6086617;23;20149;-73
2022/07/12 04:41:54;;;;;;;233.73;37.70;;;12.60;99.90;;;;;;6062676;23;20032;-74
2022/07/12 04:44:21;;;;;;;146.73;34.65;;;12.60;99.90;;;;;;6087036;23;20055;-74
2022/07/12 04:46:47;;;;;;;106.10;29.65;;;12.60;99.90;;;;;;6036255;23;20032;-74
2022/07/12 04:49:14;;;;;;;119.25;29.42;;;12.80;99.90;;;;;;6090484;23;20461;-74
2022/07/12 04:51:41;;;;;;;147.10;32.85;;;12.80;99.90;;;;;;6088546;23;20197;-74
2022/07/12 04:54:08;;;;;;;91.05;31.63;;;12.90;99.90;;;;;;6065482;23;20067;-74
2022/07/12 04:56:35;;;;;;;72.97;28.33;;;12.90;99.90;;;;;;6062890;23;20438;-74
2022/07/12 04:59:02;;;;;;;115.55;32.55;;;13.00;99.90;;;;;;6040482;23;20036;-74
2022/07/12 05:01:29;;;;;;;96.75;32.17;;;13.10;99.90;;;;;;6071680;23;20283;-74
2022/07/12 05:03:56;;;;;;;91.00;28.95;;;13.20;99.90;;;;;;6060941;23;20123;-73
2022/07/12 05:06:23;;;;;;;68.90;26.90;;;13.20;99.90;;;;;;6087396;23;20313;-74
2022/07/12 05:08:50;;;;;;;57.97;24.83;;;13.30;99.90;;;;;;6066678;23;20036;-74
2022/07/12 05:11:17;;;;;;;54.70;23.40;;;13.30;99.90;;;;;;6034367;23;20187;-74
2022/07/12 05:13:44;;;;;;;58.28;24.63;;;13.40;99.90;;;;;;6063797;23;20533;-74
2022/07/12 05:16:11;;;;;;;55.28;25.02;;;13.50;99.90;;;;;;6055497;23;20040;-73
2022/07/12 05:18:38;;;;;;;54.40;24.73;;;13.50;99.90;;;;;;6043722;23;20040;-73
2022/07/12 05:21:05;;;;;;;54.35;25.30;;;13.70;99.90;;;;;;6086978;23;20031;-73
2022/07/12 05:23:32;;;;;;;48.92;24.65;;;13.70;99.90;;;;;;6061440;23;20769;-73
2022/07/12 05:25:58;;;;;;;42.00;23.85;;;13.70;99.90;;;;;;6087321;23;20089;-73
2022/07/12 05:28:25;;;;;;;46.28;24.17;;;13.90;99.90;;;;;;6085276;23;20114;-73
2022/07/12 05:30:52;;;;;;;40.30;22.75;;;14.00;99.90;;;;;;6085210;23;20027;-73
2022/07/12 05:33:19;;;;;;;44.03;23.10;;;14.10;99.90;;;;;;6059605;23;20024;-73
2022/07/12 05:35:46;;;;;;;32.17;21.85;;;14.30;99.90;;;;;;6083077;23;20296;-73
2022/07/12 05:38:13;;;;;;;29.92;20.65;;;14.30;99.90;;;;;;6057819;23;20046;-73
2022/07/12 05:40:40;;;;;;;36.95;23.15;;;14.50;99.90;;;;;;6061628;23;20548;-73
2022/07/12 05:43:06;;;;;;;34.60;20.52;;;14.50;99.90;;;;;;6085363;23;20089;-73
2022/07/12 05:45:33;;;;;;;32.15;20.15;;;14.60;99.90;;;;;;6082592;23;20078;-73
2022/07/12 05:48:00;;;;;;;25.30;19.25;;;14.70;99.90;;;;;;6090469;23;20300;-73
2022/07/12 05:50:27;;;;;;;27.98;19.15;;;14.80;99.90;;;;;;6085857;23;20093;-72
2022/07/12 05:55:39;;;;;;;25.65;18.92;;;14.80;99.90;;;;;;6088847;23;20604;-72
2022/07/12 05:58:06;;;;;;;25.17;20.38;;;15.10;99.90;;;;;;6038912;23;20036;-73
2022/07/12 06:00:32;;;;;;;25.95;20.05;;;15.20;99.90;;;;;;6063444;23;20696;-73
2022/07/12 06:02:59;;;;;;;21.88;18.85;;;15.30;99.90;;;;;;6079053;23;20479;-73
2022/07/12 06:05:26;;;;;;;22.02;19.27;;;15.50;99.90;;;;;;6056514;23;20106;-73
2022/07/12 06:07:53;;;;;;;22.40;20.20;;;15.80;99.90;;;;;;6039151;23;20044;-72
2022/07/12 06:10:20;;;;;;;21.63;19.52;;;16.10;99.90;;;;;;6091358;23;20075;-72
2022/07/12 06:12:46;;;;;;;24.30;20.25;;;16.20;99.90;;;;;;6086829;23;20308;-73
2022/07/12 06:15:14;;;;;;;20.77;18.85;;;16.20;99.90;;;;;;6084562;23;20038;-72
2022/07/12 06:17:41;;;;;;;21.00;19.10;;;16.10;99.90;;;;;;6062385;23;20057;-72
2022/07/12 06:20:08;;;;;;;19.15;17.55;;;16.40;99.90;;;;;;6088190;23;20039;-72
2022/07/12 06:22:35;;;;;;;19.17;17.60;;;16.70;99.90;;;;;;6085767;23;20043;-73
2022/07/12 06:25:02;;;;;;;20.33;18.83;;;17.10;99.90;;;;;;6059545;23;20028;-73
2022/07/12 06:27:50;;;;;;;22.60;21.08;;;17.70;99.90;;;;;;6082586;23;20067;-73
2022/07/12 06:30:18;;;;;;;24.23;22.63;;;18.40;99.90;;;;;;6089095;23;20269;-73
2022/07/12 06:32:46;;;;;;;24.70;23.00;;;18.60;99.90;;;;;;6059725;23;20177;-73
2022/07/12 06:35:14;;;;;;;24.70;23.10;;;18.80;99.90;;;;;;6077635;23;20271;-73
2022/07/12 06:37:41;;;;;;;25.88;24.20;;;19.00;99.90;;;;;;6068968;23;20040;-71
2022/07/12 06:40:09;;;;;;;25.52;23.98;;;19.30;99.90;;;;;;6092770;23;20069;-71
2022/07/12 06:42:36;;;;;;;23.52;22.10;;;19.20;99.90;;;;;;6025011;23;20373;-71
2022/07/12 06:45:03;;;;;;;24.17;22.77;;;19.10;99.90;;;;;;6066309;23;20028;-72
2022/07/12 06:47:29;;;;;;;23.50;22.10;;;19.30;99.90;;;;;;6064578;23;20040;-71
2022/07/12 06:49:57;;;;;;;24.33;22.90;;;19.50;99.90;;;;;;6089622;23;20202;-71
2022/07/12 06:52:24;;;;;;;24.15;22.75;;;19.50;99.90;;;;;;6037858;23;20028;-72
2022/07/12 06:54:57;;;;;;;25.27;23.67;;;19.50;99.90;;;;;;6059877;23;20530;-72
2022/07/12 06:57:24;;;;;;;25.05;23.55;;;19.70;99.90;;;;;;6068401;23;20035;-71
2022/07/12 06:59:50;;;;;;;24.35;22.95;;;19.90;99.90;;;;;;6063164;23;20039;-71
2022/07/12 07:02:18;;;;;;;22.65;21.27;;;19.80;99.90;;;;;;6052963;23;20267;-72
2022/07/12 07:04:44;;;;;;;22.55;21.25;;;19.60;99.90;;;;;;6073569;23;20039;-71
2022/07/12 07:07:12;;;;;;;22.00;20.83;;;19.50;99.90;;;;;;6063648;23;20035;-71
2022/07/12 07:09:39;;;;;;;22.17;20.98;;;19.70;99.90;;;;;;6087255;23;20588;-71
2022/07/12 07:12:05;;;;;;;21.77;20.70;;;20.00;99.90;;;;;;6087325;23;20151;-71
2022/07/12 07:14:32;;;;;;;20.70;19.60;;;20.50;99.90;;;;;;6090264;23;20040;-71
2022/07/12 07:16:59;;;;;;;21.40;20.23;;;20.80;99.90;;;;;;6051436;23;20059;-72
2022/07/12 07:19:26;;;;;;;20.95;19.85;;;20.80;99.90;;;;;;6052648;23;20043;-72
2022/07/12 07:21:58;;;;;;;21.30;20.15;;;20.40;99.90;;;;;;6095381;23;20055;-71
2022/07/12 07:24:25;;;;;;;20.85;19.77;;;19.90;99.90;;;;;;6053113;23;20082;-71
2022/07/12 07:26:52;;;;;;;20.52;19.52;;;19.80;99.90;;;;;;6088330;23;20180;-72
2022/07/12 07:32:10;;;;;;;22.08;20.98;;;19.50;99.90;;;;;;6061599;23;20036;-71
2022/07/12 07:34:37;;;;;;;20.17;19.17;;;19.70;99.90;;;;;;6092006;23;20109;-72
2022/07/12 07:37:04;;;;;;;20.50;19.40;;;19.60;99.90;;;;;;6060235;23;20461;-71
2022/07/12 07:39:31;;;;;;;20.33;19.33;;;19.50;99.90;;;;;;6091442;23;20289;-72
2022/07/12 07:41:58;;;;;;;21.45;20.25;;;19.50;99.90;;;;;;6091367;23;20097;-72
2022/07/12 07:44:25;;;;;;;21.25;20.05;;;19.60;99.90;;;;;;6078975;23;20036;-72
2022/07/12 07:46:59;;;;;;;21.60;20.50;;;19.90;99.90;;;;;;6065097;23;20028;-72
2022/07/12 07:49:26;;;;;;;23.17;22.08;;;20.30;99.90;;;;;;6061410;23;20160;-71
2022/07/12 07:51:53;;;;;;;23.02;21.75;;;20.70;99.90;;;;;;6051013;23;20275;-71
2022/07/12 07:54:20;;;;;;;22.27;21.17;;;21.10;99.90;;;;;;6063541;23;20089;-71
2022/07/12 07:56:47;;;;;;;22.60;21.50;;;21.70;99.90;;;;;;6059699;23;20093;-71
2022/07/12 07:59:14;;;;;;;22.52;21.42;;;22.20;99.90;;;;;;6086057;23;20039;-71
2022/07/12 08:01:48;;;;;;;22.45;21.05;;;22.50;99.90;;;;;;6064555;23;20372;-73
2022/07/12 08:04:16;;;;;;;20.98;19.92;;;22.60;99.90;;;;;;6090057;23;20024;-73
2022/07/12 08:06:43;;;;;;;22.10;20.95;;;22.60;99.90;;;;;;6051081;23;20032;-73
2022/07/12 08:09:11;;;;;;;21.55;20.52;;;22.60;99.90;;;;;;6057006;23;20079;-73
2022/07/12 08:11:40;;;;;;;22.00;21.00;;;22.60;99.90;;;;;;6064865;23;20032;-72
2022/07/12 08:14:08;;;;;;;22.00;20.90;;;22.30;99.90;;;;;;6082344;23;20351;-74
2022/07/12 08:16:35;;;;;;;21.13;20.02;;;22.40;99.90;;;;;;6077780;23;20051;-71
2022/07/12 08:19:04;;;;;;;20.52;19.63;;;22.60;99.90;;;;;;6065534;23;20032;-73
2022/07/12 08:21:30;;;;;;;21.92;20.92;;;22.70;99.90;;;;;;6086490;23;20032;-71
2022/07/12 08:23:57;;;;;;;21.67;20.48;;;22.70;99.90;;;;;;6090272;23;20107;-73
2022/07/12 08:26:24;;;;;;;21.52;20.42;;;22.70;99.90;;;;;;6025446;23;20333;-73
2022/07/12 08:28:51;;;;;;;21.33;20.23;;;22.80;99.90;;;;;;6095648;23;20031;-71
2022/07/12 08:31:18;;;;;;;21.63;20.60;;;23.00;99.90;;;;;;6059027;23;20644;-71
2022/07/12 08:33:45;;;;;;;22.05;20.85;;;23.20;99.90;;;;;;6095911;23;20043;-73
2022/07/12 08:36:12;;;;;;;22.23;21.00;;;23.50;99.90;;;;;;6064295;23;20044;-72
2022/07/12 08:38:43;;;;;;;22.23;21.13;;;22.70;99.90;;;;;;6045934;23;20036;-72
2022/07/12 08:41:14;;;;;;;22.15;21.15;;;22.00;99.90;;;;;;6093597;23;20387;-73
2022/07/12 08:43:41;;;;;;;22.00;21.00;;;21.70;99.90;;;;;;6066005;23;20028;-73
2022/07/12 08:46:13;;;;;;;21.35;20.35;;;21.90;99.90;;;;;;6095329;23;20472;-73
2022/07/12 08:48:42;;;;;;;21.73;20.52;;;22.50;99.90;;;;;;6054898;23;20028;-74
2022/07/12 08:51:11;;;;;;;22.13;21.10;;;23.00;99.90;;;;;;6090781;23;20430;-74
2022/07/12 08:53:39;;;;;;;22.02;20.83;;;23.40;99.90;;;;;;6091347;23;20035;-73
2022/07/12 08:56:27;;;;;;;22.00;20.75;;;23.50;99.90;;;;;;6059859;23;20098;-74
2022/07/12 08:59:09;;;;;;;21.42;20.33;;;23.80;99.90;;;;;;6041752;23;20386;-71
2022/07/12 09:01:41;;;;;;;21.77;20.67;;;23.80;99.90;;;;;;6084308;23;20552;-74
2022/07/12 09:04:13;;;;;;;22.50;21.40;;;23.90;99.90;;;;;;6057738;23;20074;-71
2022/07/12 09:06:40;;;;;;;21.90;20.70;;;23.80;99.90;;;;;;6093136;23;20028;-74
2022/07/12 09:09:08;;;;;;;21.95;20.95;;;23.90;99.90;;;;;;6092954;23;20398;-72
2022/07/12 09:11:39;;;;;;;22.08;20.88;;;24.20;99.90;;;;;;6085509;23;20039;-74
2022/07/12 09:14:07;;;;;;;21.75;20.75;;;24.40;99.90;;;;;;6062105;23;20121;-74
2022/07/12 09:16:33;;;;;;;21.55;20.45;;;24.20;99.90;;;;;;6062967;23;20116;-74
2022/07/12 09:19:16;;;;;;;22.88;21.58;;;24.40;99.90;;;;;;6092293;23;20058;-73
2022/07/12 09:21:51;;;;;;;21.83;20.73;;;24.50;99.90;;;;;;6020946;23;20142;-74
2022/07/12 09:24:19;;;;;;;22.63;21.15;;;24.80;99.90;;;;;;6084464;23;20048;-74
2022/07/12 09:26:46;;;;;;;22.63;21.40;;;25.00;99.90;;;;;;6087246;23;20085;-74
2022/07/12 09:29:13;;;;;;;22.83;21.73;;;24.90;99.90;;;;;;6061291;23;20036;-74
2022/07/12 09:36:06;;;;;;;22.67;21.48;;;24.90;99.90;;;;;;6082758;23;20086;-73
2022/07/12 09:37:16;;;;;;;23.85;22.00;;;24.60;99.90;;;;;;6088045;23;20040;-73
2022/07/12 09:39:43;;;;;;;21.80;20.55;;;24.70;99.90;;;;;;6079837;23;20032;-74
2022/07/12 09:42:11;;;;;;;21.85;20.80;;;25.00;99.90;;;;;;6052855;23;20033;-74
2022/07/12 09:44:39;;;;;;;22.15;21.05;;;25.10;99.90;;;;;;6057384;23;20231;-73
2022/07/12 09:47:15;;;;;;;22.25;21.05;;;25.00;99.90;;;;;;6086868;23;20032;-73
2022/07/12 09:49:43;;;;;;;21.90;20.60;;;24.90;99.90;;;;;;6054164;23;20093;-74
2022/07/12 09:52:21;;;;;;;23.20;21.75;;;25.00;99.90;;;;;;6046970;23;20028;-74
2022/07/12 09:54:52;;;;;;;22.23;21.08;;;25.00;99.90;;;;;;6073661;23;20036;-74
2022/07/12 09:57:32;;;;;;;20.92;19.83;;;25.40;99.90;;;;;;6078875;23;20031;-73
2022/07/12 10:00:01;;;;;;;23.58;22.17;;;25.40;99.90;;;;;;6056910;23;20055;-74
2022/07/12 10:02:38;;;;;;;23.08;21.40;;;25.40;99.90;;;;;;6088653;23;21285;-72
2022/07/12 10:05:07;;;;;;;22.48;21.30;;;25.50;99.90;;;;;;6061651;23;20039;-72
2022/07/12 10:07:37;;;;;;;22.80;21.50;;;25.70;99.90;;;;;;6077258;23;20563;-72
2022/07/12 10:10:04;;;;;;;22.17;21.10;;;25.60;99.90;;;;;;6068124;23;20032;-72
2022/07/12 10:12:31;;;;;;;22.65;21.35;;;25.70;99.90;;;;;;6074048;23;21055;-72
2022/07/12 10:15:13;;;;;;;23.13;21.90;;;25.90;99.90;;;;;;6055392;23;20547;-71
2022/07/12 10:17:43;;;;;;;22.33;21.23;;;25.70;99.90;;;;;;6087285;23;20392;-72
2022/07/12 10:20:22;;;;;;;23.08;21.77;;;25.70;99.90;;;;;;6055407;23;20512;-74
2022/07/12 10:22:53;;;;;;;22.73;21.42;;;25.80;99.90;;;;;;6041715;23;20039;-73
2022/07/12 10:25:32;;;;;;;23.45;22.25;;;26.10;99.90;;;;;;6050983;23;20363;-73
2022/07/12 10:28:00;;;;;;;22.15;21.05;;;25.90;99.90;;;;;;6053136;23;20052;-72
2022/07/12 10:30:28;;;;;;;22.83;21.58;;;25.90;99.90;;;;;;6085550;23;20032;-72
2022/07/12 10:32:58;;;;;;;21.75;20.65;;;25.80;99.90;;;;;;6047602;23;20027;-72
2022/07/12 10:35:30;;;;;;;22.67;21.48;;;25.90;99.90;;;;;;6050054;23;20049;-72
2022/07/12 10:38:12;;;;;;;22.95;21.65;;;25.80;99.90;;;;;;6058191;23;20058;-72
2022/07/12 10:40:43;;;;;;;22.27;21.08;;;25.70;99.90;;;;;;6060564;23;20775;-72
2022/07/12 10:43:10;;;;;;;23.02;21.70;;;25.80;99.90;;;;;;6067658;23;20038;-72
2022/07/12 10:45:39;;;;;;;22.77;21.42;;;25.90;99.90;;;;;;6049099;23;20467;-72
2022/07/12 10:48:20;;;;;;;22.35;21.23;;;25.90;99.90;;;;;;6064772;23;20050;-72
2022/07/12 10:50:55;;;;;;;22.08;20.88;;;26.20;99.90;;;;;;6086859;23;20108;-73
2022/07/12 10:53:27;;;;;;;22.45;21.20;;;26.30;99.90;;;;;;6037157;23;20374;-73
2022/07/12 10:56:04;;;;;;;23.48;22.08;;;26.00;99.90;;;;;;6043621;23;20040;-72
2022/07/12 10:58:33;;;;;;;22.50;21.30;;;26.10;99.90;;;;;;6056092;23;20463;-72
2022/07/12 11:01:02;;;;;;;21.80;20.60;;;26.20;99.90;;;;;;6058873;23;20036;-74
2022/07/12 11:03:50;;;;;;;22.50;21.25;;;26.40;99.90;;;;;;6086888;23;20123;-72
2022/07/12 11:06:21;;;;;;;22.90;21.70;;;26.70;99.90;;;;;;6063848;23;20035;-72
2022/07/12 11:08:49;;;;;;;22.55;21.35;;;26.80;99.90;;;;;;6062213;23;20096;-72
2022/07/12 11:11:17;;;;;;;23.38;21.98;;;26.80;99.90;;;;;;6055153;23;20051;-72
2022/07/12 11:13:44;;;;;;;23.20;22.00;;;27.20;99.90;;;;;;6065348;23;20035;-72
2022/07/12 11:16:11;;;;;;;22.92;21.73;;;27.20;99.90;;;;;;6061359;23;20079;-71
2022/07/12 11:18:38;;;;;;;23.35;22.10;;;26.40;99.90;;;;;;6047781;23;20146;-72
2022/07/12 11:21:06;;;;;;;22.73;21.50;;;25.90;99.90;;;;;;6092911;23;20042;-74
2022/07/12 11:23:33;;;;;;;23.52;22.30;;;26.30;99.90;;;;;;6062567;23;20036;-72
2022/07/12 11:26:03;;;;;;;24.30;23.00;;;26.40;99.90;;;;;;6069746;23;20031;-72
2022/07/12 11:28:31;;;;;;;23.90;22.60;;;26.50;99.90;;;;;;6050205;23;20134;-72
2022/07/12 11:31:09;;;;;;;23.48;22.15;;;26.20;99.90;;;;;;6086493;23;20040;-72
2022/07/12 11:33:38;;;;;;;22.85;21.63;;;26.20;99.90;;;;;;6053852;23;20035;-72
2022/07/12 11:36:07;;;;;;;22.20;20.90;;;26.60;99.90;;;;;;6092662;23;20032;-72
2022/07/12 11:38:35;;;;;;;23.35;22.02;;;26.60;99.90;;;;;;6064804;23;20290;-72
2022/07/12 11:41:10;;;;;;;23.13;21.92;;;26.80;99.90;;;;;;6064934;23;20063;-72
2022/07/12 11:43:38;;;;;;;22.60;21.40;;;27.00;99.90;;;;;;6057582;23;20234;-72
2022/07/12 11:46:07;;;;;;;23.30;22.00;;;27.00;99.90;;;;;;6087583;23;20093;-72
2022/07/12 11:48:36;;;;;;;23.50;22.30;;;26.40;99.90;;;;;;6091294;23;21666;-72
2022/07/12 11:51:08;;;;;;;23.20;22.00;;;26.50;99.90;;;;;;6089295;23;20199;-71
2022/07/12 11:53:36;;;;;;;23.48;22.17;;;26.70;99.90;;;;;;6055168;23;20485;-72
2022/07/12 11:56:05;;;;;;;22.60;21.40;;;26.40;99.90;;;;;;6058104;23;20051;-72
2022/07/12 11:58:32;;;;;;;23.30;22.00;;;26.70;99.90;;;;;;6055152;23;20573;-71
2022/07/12 12:01:00;;;;;;;22.55;21.35;;;26.30;99.90;;;;;;6093082;23;20039;-72
2022/07/12 12:03:27;;;;;;;23.30;22.00;;;26.50;99.90;;;;;;6063530;23;20031;-72
2022/07/12 12:05:58;;;;;;;22.73;21.52;;;26.50;99.90;;;;;;6026030;23;20028;-71
2022/07/12 12:08:25;;;;;;;23.05;21.85;;;26.60;99.90;;;;;;6067086;23;20032;-71
2022/07/12 12:10:59;;;;;;;23.42;22.13;;;27.00;99.90;;;;;;6068362;23;20035;-72
2022/07/12 12:13:30;;;;;;;23.73;22.45;;;27.10;99.90;;;;;;6082355;23;20032;-71
2022/07/12 12:16:02;;;;;;;25.02;23.63;;;27.10;99.90;;;;;;6061222;23;20040;-71
2022/07/12 12:18:38;;;;;;;22.67;21.48;;;26.80;99.90;;;;;;6061116;23;20039;-72
2022/07/12 12:21:10;;;;;;;24.05;22.67;;;26.80;99.90;;;;;;6086407;23;20493;-71
2022/07/12 12:23:39;;;;;;;22.67;21.48;;;27.00;99.90;;;;;;6052965;23;20674;-72
2022/07/12 12:26:23;;;;;;;22.35;21.00;;;26.90;99.90;;;;;;6082041;23;20118;-71
2022/07/12 12:28:52;;;;;;;22.43;21.23;;;27.10;99.90;;;;;;6048385;23;20101;-72
2022/07/12 12:31:21;;;;;;;22.13;21.02;;;27.20;99.90;;;;;;6078579;23;20034;-71
2022/07/12 12:33:51;;;;;;;23.67;22.38;;;27.40;99.90;;;;;;6056380;23;20066;-72
2022/07/12 12:36:24;;;;;;;23.42;22.23;;;27.70;99.90;;;;;;6062118;23;20600;-71
2022/07/12 12:38:53;;;;;;;23.08;21.88;;;27.70;99.90;;;;;;6042996;23;20094;-72
2022/07/12 12:41:22;;;;;;;23.35;21.88;;;27.60;99.90;;;;;;6038634;23;20482;-72